sensor_id;sensor_type;location;lat;lon;timestamp;pressure;altitude;pressure_sealevel;temperature;humidity
69737;BME280;64476;55.004;73.342;2023-07-30T00:02:32;99636.03;;;16.11;73.21
69737;BME280;64476;55.004;73.342;2023-07-30T00:06:05;99641.25;;;16.17;73.08
69737;BME280;64476;55.004;73.342;2023-07-30T00:12:41;99651.78;;;16.24;73.06
69737;BME280;64476;55.004;73.342;2023-07-30T00:15:47;99626.69;;;16.08;73.06
69737;BME280;64476;55.004;73.342;2023-07-30T00:18:49;99613.06;;;16.05;72.99
69737;BME280;64476;55.004;73.342;2023-07-30T00:21:51;99632.66;;;16.22;72.92
69737;BME280;64476;55.004;73.342;2023-07-30T00:24:52;99630.22;;;16.20;72.76
69737;BME280;64476;55.004;73.342;2023-07-30T00:27:54;99644.44;;;16.26;72.15
69737;BME280;64476;55.004;73.342;2023-07-30T00:30:56;99642.38;;;16.28;72.67
69737;BME280;64476;55.004;73.342;2023-07-30T00:33:57;99669.09;;;16.52;72.44
69737;BME280;64476;55.004;73.342;2023-07-30T00:36:59;99666.16;;;16.60;72.06
69737;BME280;64476;55.004;73.342;2023-07-30T00:40:04;99645.25;;;16.45;71.89
69737;BME280;64476;55.004;73.342;2023-07-30T00:43:07;99676.00;;;16.71;71.71
69737;BME280;64476;55.004;73.342;2023-07-30T00:46:14;99656.78;;;16.57;71.50
69737;BME280;64476;55.004;73.342;2023-07-30T00:49:16;99663.06;;;16.63;71.49
69737;BME280;64476;55.004;73.342;2023-07-30T00:52:28;99655.16;;;16.56;71.40
69737;BME280;64476;55.004;73.342;2023-07-30T00:55:31;99652.88;;;16.60;71.47
69737;BME280;64476;55.004;73.342;2023-07-30T00:58:33;99678.66;;;16.71;71.27
69737;BME280;64476;55.004;73.342;2023-07-30T01:01:36;99673.97;;;16.73;71.46
69737;BME280;64476;55.004;73.342;2023-07-30T01:04:40;99680.28;;;16.72;71.32
69737;BME280;64476;55.004;73.342;2023-07-30T01:07:42;99686.19;;;16.74;71.31
69737;BME280;64476;55.004;73.342;2023-07-30T01:10:44;99681.56;;;16.69;71.43
69737;BME280;64476;55.004;73.342;2023-07-30T01:13:46;99678.44;;;16.72;71.42
69737;BME280;64476;55.004;73.342;2023-07-30T01:16:49;99682.72;;;16.73;71.32
69737;BME280;64476;55.004;73.342;2023-07-30T01:23:02;99696.56;;;16.75;71.26
69737;BME280;64476;55.004;73.342;2023-07-30T01:26:09;99612.66;;;16.26;71.36
69737;BME280;64476;55.004;73.342;2023-07-30T01:29:18;99703.47;;;16.77;70.83
69737;BME280;64476;55.004;73.342;2023-07-30T01:32:26;99705.44;;;16.69;71.17
69737;BME280;64476;55.004;73.342;2023-07-30T01:35:28;99715.19;;;16.69;70.98
69737;BME280;64476;55.004;73.342;2023-07-30T01:38:31;99714.56;;;16.73;71.23
69737;BME280;64476;55.004;73.342;2023-07-30T01:41:35;99704.97;;;16.72;71.21
69737;BME280;64476;55.004;73.342;2023-07-30T01:44:38;99720.88;;;16.91;71.23
69737;BME280;64476;55.004;73.342;2023-07-30T01:47:40;99715.34;;;16.92;70.74
69737;BME280;64476;55.004;73.342;2023-07-30T01:50:42;99713.81;;;17.03;70.88
69737;BME280;64476;55.004;73.342;2023-07-30T01:53:44;99669.53;;;16.67;70.58
69737;BME280;64476;55.004;73.342;2023-07-30T01:56:54;99720.72;;;17.04;70.50
69737;BME280;64476;55.004;73.342;2023-07-30T02:03:42;99736.13;;;17.14;69.94
69737;BME280;64476;55.004;73.342;2023-07-30T02:06:44;99726.69;;;17.18;70.00
69737;BME280;64476;55.004;73.342;2023-07-30T02:09:45;99726.25;;;17.21;69.78
69737;BME280;64476;55.004;73.342;2023-07-30T02:12:49;99731.75;;;17.38;69.65
69737;BME280;64476;55.004;73.342;2023-07-30T02:15:51;99736.22;;;17.56;69.38
69737;BME280;64476;55.004;73.342;2023-07-30T02:18:53;99732.56;;;17.68;68.44
69737;BME280;64476;55.004;73.342;2023-07-30T02:21:55;99728.19;;;17.74;68.37
69737;BME280;64476;55.004;73.342;2023-07-30T02:24:56;99721.13;;;17.80;68.64
69737;BME280;64476;55.004;73.342;2023-07-30T02:27:59;99731.47;;;18.00;68.37
69737;BME280;64476;55.004;73.342;2023-07-30T02:31:02;99720.75;;;18.06;67.93
69737;BME280;64476;55.004;73.342;2023-07-30T02:34:03;99725.97;;;18.13;67.42
69737;BME280;64476;55.004;73.342;2023-07-30T02:37:05;99703.75;;;18.07;67.13
69737;BME280;64476;55.004;73.342;2023-07-30T02:40:11;99740.69;;;18.39;66.96
69737;BME280;64476;55.004;73.342;2023-07-30T02:43:12;99695.69;;;18.26;66.50
69737;BME280;64476;55.004;73.342;2023-07-30T02:46:14;99708.97;;;18.37;66.13
69737;BME280;64476;55.004;73.342;2023-07-30T02:49:16;99717.66;;;18.45;65.93
69737;BME280;64476;55.004;73.342;2023-07-30T02:52:18;99737.28;;;18.67;66.15
69737;BME280;64476;55.004;73.342;2023-07-30T02:55:19;99728.75;;;18.65;65.71
69737;BME280;64476;55.004;73.342;2023-07-30T03:01:58;99736.59;;;18.83;65.06
69737;BME280;64476;55.004;73.342;2023-07-30T03:05:31;99717.75;;;18.73;65.11
69737;BME280;64476;55.004;73.342;2023-07-30T03:12:13;99737.59;;;19.06;65.02
69737;BME280;64476;55.004;73.342;2023-07-30T03:15:46;99748.13;;;19.12;64.75
69737;BME280;64476;55.004;73.342;2023-07-30T03:18:52;99714.13;;;19.03;64.15
69737;BME280;64476;55.004;73.342;2023-07-30T03:21:55;99725.25;;;19.28;63.66
69737;BME280;64476;55.004;73.342;2023-07-30T03:24:56;99738.53;;;19.40;63.67
69737;BME280;64476;55.004;73.342;2023-07-30T03:27:59;99742.59;;;19.43;63.53
69737;BME280;64476;55.004;73.342;2023-07-30T03:31:01;99747.78;;;19.49;63.08
69737;BME280;64476;55.004;73.342;2023-07-30T03:34:06;99716.81;;;19.48;62.67
69737;BME280;64476;55.004;73.342;2023-07-30T03:37:07;99739.19;;;19.76;62.31
69737;BME280;64476;55.004;73.342;2023-07-30T03:40:09;99752.47;;;19.88;61.77
69737;BME280;64476;55.004;73.342;2023-07-30T03:43:11;99755.44;;;19.91;61.47
69737;BME280;64476;55.004;73.342;2023-07-30T03:46:13;99747.44;;;19.91;61.13
69737;BME280;64476;55.004;73.342;2023-07-30T03:49:15;99725.88;;;19.93;60.32
69737;BME280;64476;55.004;73.342;2023-07-30T03:52:18;99725.31;;;19.91;60.57
69737;BME280;64476;55.004;73.342;2023-07-30T03:55:20;99741.38;;;19.96;60.75
69737;BME280;64476;55.004;73.342;2023-07-30T03:58:21;99724.91;;;19.99;61.13
69737;BME280;64476;55.004;73.342;2023-07-30T04:01:24;99742.69;;;20.27;60.83
69737;BME280;64476;55.004;73.342;2023-07-30T04:05:04;99718.44;;;20.28;59.62
69737;BME280;64476;55.004;73.342;2023-07-30T04:08:10;99750.69;;;20.61;59.47
69737;BME280;64476;55.004;73.342;2023-07-30T04:11:12;99749.00;;;20.76;59.25
69737;BME280;64476;55.004;73.342;2023-07-30T04:14:14;99757.03;;;20.76;57.91
69737;BME280;64476;55.004;73.342;2023-07-30T04:17:17;99745.59;;;20.81;58.42
69737;BME280;64476;55.004;73.342;2023-07-30T04:20:24;99757.50;;;21.12;58.21
69737;BME280;64476;55.004;73.342;2023-07-30T04:23:25;99745.91;;;21.06;57.52
69737;BME280;64476;55.004;73.342;2023-07-30T04:27:00;99768.91;;;21.29;56.49
69737;BME280;64476;55.004;73.342;2023-07-30T04:30:06;99760.41;;;21.33;56.78
69737;BME280;64476;55.004;73.342;2023-07-30T04:33:08;99748.38;;;21.57;55.66
69737;BME280;64476;55.004;73.342;2023-07-30T04:36:12;99755.56;;;21.78;54.58
69737;BME280;64476;55.004;73.342;2023-07-30T04:39:14;99750.59;;;21.92;54.54
69737;BME280;64476;55.004;73.342;2023-07-30T04:42:16;99742.44;;;22.09;54.24
69737;BME280;64476;55.004;73.342;2023-07-30T04:45:18;99748.44;;;22.26;53.10
69737;BME280;64476;55.004;73.342;2023-07-30T04:48:23;99713.56;;;22.11;52.74
69737;BME280;64476;55.004;73.342;2023-07-30T04:55:05;99735.84;;;22.59;52.46
69737;BME280;64476;55.004;73.342;2023-07-30T04:58:06;99764.50;;;22.64;51.95
69737;BME280;64476;55.004;73.342;2023-07-30T05:01:08;99753.44;;;22.50;52.43
69737;BME280;64476;55.004;73.342;2023-07-30T05:04:10;99777.41;;;22.40;52.67
69737;BME280;64476;55.004;73.342;2023-07-30T05:07:11;99780.78;;;22.25;52.66
69737;BME280;64476;55.004;73.342;2023-07-30T05:10:13;99777.09;;;22.26;52.83
69737;BME280;64476;55.004;73.342;2023-07-30T05:13:15;99744.34;;;21.82;53.61
69737;BME280;64476;55.004;73.342;2023-07-30T05:16:17;99746.25;;;21.86;54.57
69737;BME280;64476;55.004;73.342;2023-07-30T05:19:50;99770.44;;;21.96;53.86
69737;BME280;64476;55.004;73.342;2023-07-30T05:22:52;99767.88;;;21.85;54.68
69737;BME280;64476;55.004;73.342;2023-07-30T05:26:00;99748.16;;;21.91;54.19
69737;BME280;64476;55.004;73.342;2023-07-30T05:29:02;99771.84;;;22.41;52.77
69737;BME280;64476;55.004;73.342;2023-07-30T05:32:04;99749.75;;;22.61;53.24
69737;BME280;64476;55.004;73.342;2023-07-30T05:35:06;99779.56;;;22.80;52.86
69737;BME280;64476;55.004;73.342;2023-07-30T05:38:08;99758.91;;;22.70;52.82
69737;BME280;64476;55.004;73.342;2023-07-30T05:41:10;99773.00;;;23.03;51.44
69737;BME280;64476;55.004;73.342;2023-07-30T05:44:12;99752.44;;;23.19;50.23
69737;BME280;64476;55.004;73.342;2023-07-30T05:47:13;99745.94;;;23.10;51.07
69737;BME280;64476;55.004;73.342;2023-07-30T05:50:15;99769.59;;;23.18;50.85
69737;BME280;64476;55.004;73.342;2023-07-30T05:53:49;99760.03;;;22.80;51.17
69737;BME280;64476;55.004;73.342;2023-07-30T05:56:50;99767.25;;;22.79;50.99
69737;BME280;64476;55.004;73.342;2023-07-30T05:59:52;99745.09;;;22.94;51.32
69737;BME280;64476;55.004;73.342;2023-07-30T06:02:54;99789.25;;;23.49;49.66
69737;BME280;64476;55.004;73.342;2023-07-30T06:05:55;99789.81;;;23.56;49.55
69737;BME280;64476;55.004;73.342;2023-07-30T06:08:57;99779.59;;;23.48;48.63
69737;BME280;64476;55.004;73.342;2023-07-30T06:12:01;99775.84;;;23.54;49.82
69737;BME280;64476;55.004;73.342;2023-07-30T06:15:05;99786.91;;;23.83;49.56
69737;BME280;64476;55.004;73.342;2023-07-30T06:18:08;99790.63;;;23.72;48.55
69737;BME280;64476;55.004;73.342;2023-07-30T06:21:10;99790.69;;;23.77;49.22
69737;BME280;64476;55.004;73.342;2023-07-30T06:24:12;99784.25;;;23.93;49.03
69737;BME280;64476;55.004;73.342;2023-07-30T06:27:13;99793.13;;;24.25;49.05
69737;BME280;64476;55.004;73.342;2023-07-30T06:30:15;99726.84;;;23.89;47.92
69737;BME280;64476;55.004;73.342;2023-07-30T06:33:17;99782.66;;;24.28;47.33
69737;BME280;64476;55.004;73.342;2023-07-30T06:36:19;99788.56;;;24.46;47.49
69737;BME280;64476;55.004;73.342;2023-07-30T06:39:22;99792.03;;;24.51;47.27
69737;BME280;64476;55.004;73.342;2023-07-30T06:42:24;99779.13;;;24.69;46.64
69737;BME280;64476;55.004;73.342;2023-07-30T06:45:25;99769.16;;;24.74;46.25
69737;BME280;64476;55.004;73.342;2023-07-30T06:48:27;99794.09;;;25.05;44.66
69737;BME280;64476;55.004;73.342;2023-07-30T06:51:35;99731.84;;;24.73;45.44
69737;BME280;64476;55.004;73.342;2023-07-30T06:54:37;99775.78;;;25.07;44.51
69737;BME280;64476;55.004;73.342;2023-07-30T06:57:38;99794.59;;;25.07;44.69
69737;BME280;64476;55.004;73.342;2023-07-30T07:00:44;99783.34;;;25.00;45.68
69737;BME280;64476;55.004;73.342;2023-07-30T07:03:46;99797.31;;;24.92;44.99
69737;BME280;64476;55.004;73.342;2023-07-30T07:06:48;99799.50;;;24.75;45.77
69737;BME280;64476;55.004;73.342;2023-07-30T07:09:50;99780.97;;;24.83;45.52
69737;BME280;64476;55.004;73.342;2023-07-30T07:12:51;99799.94;;;25.12;44.72
69737;BME280;64476;55.004;73.342;2023-07-30T07:15:57;99802.59;;;25.23;43.84
69737;BME280;64476;55.004;73.342;2023-07-30T07:18:59;99791.41;;;24.90;44.01
69737;BME280;64476;55.004;73.342;2023-07-30T07:22:00;99804.00;;;25.10;44.39
69737;BME280;64476;55.004;73.342;2023-07-30T07:25:02;99802.72;;;25.52;44.12
69737;BME280;64476;55.004;73.342;2023-07-30T07:28:05;99796.25;;;25.58;43.59
69737;BME280;64476;55.004;73.342;2023-07-30T07:31:07;99795.88;;;25.25;43.01
69737;BME280;64476;55.004;73.342;2023-07-30T07:34:09;99788.78;;;24.70;43.45
69737;BME280;64476;55.004;73.342;2023-07-30T07:37:10;99800.34;;;24.50;44.86
69737;BME280;64476;55.004;73.342;2023-07-30T07:40:12;99797.16;;;24.48;44.48
69737;BME280;64476;55.004;73.342;2023-07-30T07:43:14;99771.88;;;24.59;44.88
69737;BME280;64476;55.004;73.342;2023-07-30T07:46:15;99783.13;;;24.76;43.86
69737;BME280;64476;55.004;73.342;2023-07-30T07:49:19;99799.78;;;24.68;43.21
69737;BME280;64476;55.004;73.342;2023-07-30T07:52:21;99795.72;;;24.91;43.03
69737;BME280;64476;55.004;73.342;2023-07-30T07:59:02;99792.50;;;24.99;43.38
69737;BME280;64476;55.004;73.342;2023-07-30T08:02:35;99796.03;;;24.74;43.87
69737;BME280;64476;55.004;73.342;2023-07-30T08:06:08;99791.44;;;24.85;44.14
69737;BME280;64476;55.004;73.342;2023-07-30T08:09:10;99780.66;;;24.95;43.21
69737;BME280;64476;55.004;73.342;2023-07-30T08:12:12;99782.72;;;25.19;42.16
69737;BME280;64476;55.004;73.342;2023-07-30T08:15:47;99786.56;;;25.52;42.13
69737;BME280;64476;55.004;73.342;2023-07-30T08:22:30;99774.84;;;25.82;41.50
69737;BME280;64476;55.004;73.342;2023-07-30T08:25:35;99743.22;;;25.64;40.96
69737;BME280;64476;55.004;73.342;2023-07-30T08:28:36;99761.50;;;25.67;40.59
69737;BME280;64476;55.004;73.342;2023-07-30T08:31:38;99773.84;;;25.73;40.27
69737;BME280;64476;55.004;73.342;2023-07-30T08:34:40;99767.69;;;25.67;40.53
69737;BME280;64476;55.004;73.342;2023-07-30T08:37:45;99772.25;;;25.72;41.81
69737;BME280;64476;55.004;73.342;2023-07-30T08:40:47;99767.81;;;25.86;41.16
69737;BME280;64476;55.004;73.342;2023-07-30T08:43:48;99701.22;;;25.68;40.24
69737;BME280;64476;55.004;73.342;2023-07-30T08:46:50;99760.31;;;26.17;39.04
69737;BME280;64476;55.004;73.342;2023-07-30T08:49:52;99754.06;;;26.22;40.32
69737;BME280;64476;55.004;73.342;2023-07-30T08:52:55;99761.19;;;26.07;40.80
69737;BME280;64476;55.004;73.342;2023-07-30T08:55:58;99745.34;;;26.01;40.31
69737;BME280;64476;55.004;73.342;2023-07-30T08:59:03;99730.59;;;25.93;39.91
69737;BME280;64476;55.004;73.342;2023-07-30T09:02:12;99764.44;;;26.04;38.58
69737;BME280;64476;55.004;73.342;2023-07-30T09:05:16;99774.59;;;26.13;38.67
69737;BME280;64476;55.004;73.342;2023-07-30T09:08:18;99761.91;;;26.18;38.94
69737;BME280;64476;55.004;73.342;2023-07-30T09:11:20;99769.59;;;26.35;39.06
69737;BME280;64476;55.004;73.342;2023-07-30T09:14:30;99754.78;;;26.32;38.13
69737;BME280;64476;55.004;73.342;2023-07-30T09:17:33;99759.03;;;26.39;37.54
69737;BME280;64476;55.004;73.342;2023-07-30T09:20:38;99753.53;;;26.25;38.13
69737;BME280;64476;55.004;73.342;2023-07-30T09:23:45;99745.34;;;26.35;38.38
69737;BME280;64476;55.004;73.342;2023-07-30T09:26:47;99744.31;;;26.31;38.72
69737;BME280;64476;55.004;73.342;2023-07-30T09:29:54;99747.41;;;26.43;37.15
69737;BME280;64476;55.004;73.342;2023-07-30T09:32:57;99729.34;;;26.20;37.19
69737;BME280;64476;55.004;73.342;2023-07-30T09:39:04;99725.69;;;26.35;38.48
69737;BME280;64476;55.004;73.342;2023-07-30T09:42:15;99741.34;;;26.56;38.22
69737;BME280;64476;55.004;73.342;2023-07-30T09:45:22;99758.41;;;26.71;37.80
69737;BME280;64476;55.004;73.342;2023-07-30T09:48:24;99750.84;;;26.73;36.29
69737;BME280;64476;55.004;73.342;2023-07-30T09:55:07;99745.50;;;26.44;37.25
69737;BME280;64476;55.004;73.342;2023-07-30T09:58:09;99746.66;;;26.62;37.39
69737;BME280;64476;55.004;73.342;2023-07-30T10:01:43;99744.22;;;26.65;37.86
69737;BME280;64476;55.004;73.342;2023-07-30T10:04:49;99746.25;;;26.78;37.22
69737;BME280;64476;55.004;73.342;2023-07-30T10:08:09;99722.31;;;26.72;36.25
69737;BME280;64476;55.004;73.342;2023-07-30T10:11:47;99743.25;;;26.80;36.36
69737;BME280;64476;55.004;73.342;2023-07-30T10:14:57;99741.47;;;26.94;35.26
69737;BME280;64476;55.004;73.342;2023-07-30T10:17:58;99748.31;;;26.87;35.26
69737;BME280;64476;55.004;73.342;2023-07-30T10:21:00;99742.47;;;26.79;35.93
69737;BME280;64476;55.004;73.342;2023-07-30T10:24:05;99726.06;;;26.76;35.95
69737;BME280;64476;55.004;73.342;2023-07-30T10:27:08;99751.59;;;27.02;35.27
69737;BME280;64476;55.004;73.342;2023-07-30T10:30:15;99742.22;;;27.19;33.71
69737;BME280;64476;55.004;73.342;2023-07-30T10:36:41;99723.78;;;27.26;34.39
69737;BME280;64476;55.004;73.342;2023-07-30T10:39:49;99721.94;;;27.21;35.27
69737;BME280;64476;55.004;73.342;2023-07-30T10:45:57;99743.28;;;27.42;34.33
69737;BME280;64476;55.004;73.342;2023-07-30T10:48:59;99741.88;;;27.44;34.10
69737;BME280;64476;55.004;73.342;2023-07-30T10:52:00;99732.97;;;27.44;34.10
69737;BME280;64476;55.004;73.342;2023-07-30T10:55:02;99739.41;;;27.67;33.79
69737;BME280;64476;55.004;73.342;2023-07-30T10:58:05;99741.91;;;27.96;34.05
69737;BME280;64476;55.004;73.342;2023-07-30T11:01:08;99736.84;;;28.41;32.59
69737;BME280;64476;55.004;73.342;2023-07-30T11:04:42;99746.63;;;29.06;30.86
69737;BME280;64476;55.004;73.342;2023-07-30T11:07:49;99749.38;;;29.64;31.40
69737;BME280;64476;55.004;73.342;2023-07-30T11:10:55;99759.16;;;29.97;30.67
69737;BME280;64476;55.004;73.342;2023-07-30T11:14:29;99755.25;;;30.43;29.81
69737;BME280;64476;55.004;73.342;2023-07-30T11:17:35;99745.84;;;30.71;28.69
69737;BME280;64476;55.004;73.342;2023-07-30T11:20:37;99747.72;;;31.11;27.97
69737;BME280;64476;55.004;73.342;2023-07-30T11:23:41;99758.09;;;31.17;27.53
69737;BME280;64476;55.004;73.342;2023-07-30T11:26:45;99749.63;;;31.10;27.90
69737;BME280;64476;55.004;73.342;2023-07-30T11:33:30;99767.50;;;31.89;27.19
69737;BME280;64476;55.004;73.342;2023-07-30T11:36:35;99774.88;;;31.28;27.88
69737;BME280;64476;55.004;73.342;2023-07-30T11:43:09;99786.22;;;29.52;28.29
69737;BME280;64476;55.004;73.342;2023-07-30T11:46:16;99789.19;;;28.86;30.49
69737;BME280;64476;55.004;73.342;2023-07-30T11:49:18;99780.00;;;28.27;31.65
69737;BME280;64476;55.004;73.342;2023-07-30T11:52:23;99759.63;;;27.83;31.53
69737;BME280;64476;55.004;73.342;2023-07-30T11:55:37;99787.81;;;27.58;32.88
69737;BME280;64476;55.004;73.342;2023-07-30T11:58:41;99771.94;;;27.38;33.51
69737;BME280;64476;55.004;73.342;2023-07-30T12:04:53;99792.16;;;26.92;34.90
69737;BME280;64476;55.004;73.342;2023-07-30T12:07:55;99784.63;;;27.13;35.41
69737;BME280;64476;55.004;73.342;2023-07-30T12:11:02;99803.69;;;28.77;33.55
69737;BME280;64476;55.004;73.342;2023-07-30T12:14:04;99801.53;;;29.42;31.62
69737;BME280;64476;55.004;73.342;2023-07-30T12:17:06;99768.25;;;28.92;31.71
69737;BME280;64476;55.004;73.342;2023-07-30T12:20:11;99789.66;;;28.47;31.85
69737;BME280;64476;55.004;73.342;2023-07-30T12:23:13;99801.13;;;28.06;33.03
69737;BME280;64476;55.004;73.342;2023-07-30T12:26:16;99794.81;;;27.40;33.80
69737;BME280;64476;55.004;73.342;2023-07-30T12:29:17;99805.69;;;26.87;34.58
69737;BME280;64476;55.004;73.342;2023-07-30T12:32:19;99799.34;;;26.49;35.58
69737;BME280;64476;55.004;73.342;2023-07-30T12:35:27;99767.97;;;26.00;36.19
69737;BME280;64476;55.004;73.342;2023-07-30T12:38:28;99796.81;;;25.94;37.38
69737;BME280;64476;55.004;73.342;2023-07-30T12:41:35;99821.53;;;25.62;37.83
69737;BME280;64476;55.004;73.342;2023-07-30T12:44:37;99758.34;;;24.89;38.22
69737;BME280;64476;55.004;73.342;2023-07-30T12:47:39;99824.72;;;24.99;38.84
69737;BME280;64476;55.004;73.342;2023-07-30T12:50:41;99814.03;;;24.53;39.03
69737;BME280;64476;55.004;73.342;2023-07-30T12:53:43;99802.00;;;24.10;39.84
69737;BME280;64476;55.004;73.342;2023-07-30T12:56:45;99833.66;;;24.03;40.00
69737;BME280;64476;55.004;73.342;2023-07-30T12:59:46;99808.34;;;23.63;40.31
69737;BME280;64476;55.004;73.342;2023-07-30T13:02:48;99782.72;;;23.14;40.71
69737;BME280;64476;55.004;73.342;2023-07-30T13:05:53;99843.09;;;23.37;41.12
69737;BME280;64476;55.004;73.342;2023-07-30T13:08:55;99830.72;;;23.26;41.79
69737;BME280;64476;55.004;73.342;2023-07-30T13:11:56;99807.84;;;23.03;42.06
69737;BME280;64476;55.004;73.342;2023-07-30T13:15:00;99795.69;;;22.85;42.48
69737;BME280;64476;55.004;73.342;2023-07-30T13:18:04;99828.94;;;22.94;42.82
69737;BME280;64476;55.004;73.342;2023-07-30T13:21:06;99837.47;;;22.86;43.20
69737;BME280;64476;55.004;73.342;2023-07-30T13:24:08;99826.69;;;22.76;43.51
69737;BME280;64476;55.004;73.342;2023-07-30T13:27:10;99846.22;;;22.71;43.79
69737;BME280;64476;55.004;73.342;2023-07-30T13:34:20;99836.69;;;22.48;44.46
69737;BME280;64476;55.004;73.342;2023-07-30T13:37:22;99834.41;;;22.35;44.48
69737;BME280;64476;55.004;73.342;2023-07-30T13:40:24;99800.75;;;22.07;44.84
69737;BME280;64476;55.004;73.342;2023-07-30T13:47:02;99844.38;;;22.13;44.96
69737;BME280;64476;55.004;73.342;2023-07-30T13:50:35;99827.09;;;21.93;45.33
69737;BME280;64476;55.004;73.342;2023-07-30T13:53:40;99851.47;;;21.97;45.91
69737;BME280;64476;55.004;73.342;2023-07-30T13:57:23;99827.66;;;21.73;46.54
69737;BME280;64476;55.004;73.342;2023-07-30T14:00:56;99860.63;;;21.79;46.93
69737;BME280;64476;55.004;73.342;2023-07-30T14:04:30;99869.94;;;21.76;47.56
69737;BME280;64476;55.004;73.342;2023-07-30T14:07:32;99867.09;;;21.61;47.38
69737;BME280;64476;55.004;73.342;2023-07-30T14:10:34;99886.06;;;21.60;47.39
69737;BME280;64476;55.004;73.342;2023-07-30T14:13:35;99861.44;;;21.36;47.67
69737;BME280;64476;55.004;73.342;2023-07-30T14:16:41;99863.00;;;21.32;48.07
69737;BME280;64476;55.004;73.342;2023-07-30T14:19:44;99894.38;;;21.41;48.58
69737;BME280;64476;55.004;73.342;2023-07-30T14:22:53;99895.69;;;21.39;48.73
69737;BME280;64476;55.004;73.342;2023-07-30T14:26:00;99903.56;;;21.28;48.89
69737;BME280;64476;55.004;73.342;2023-07-30T14:29:16;99902.94;;;21.21;49.06
69737;BME280;64476;55.004;73.342;2023-07-30T14:32:19;99887.41;;;21.01;49.46
69737;BME280;64476;55.004;73.342;2023-07-30T14:35:22;99904.50;;;21.00;49.78
69737;BME280;64476;55.004;73.342;2023-07-30T14:38:31;99844.91;;;20.61;50.11
69737;BME280;64476;55.004;73.342;2023-07-30T14:41:35;99891.06;;;20.78;50.41
69737;BME280;64476;55.004;73.342;2023-07-30T14:44:37;99904.50;;;20.83;50.72
69737;BME280;64476;55.004;73.342;2023-07-30T14:47:39;99892.19;;;20.66;50.58
69737;BME280;64476;55.004;73.342;2023-07-30T14:50:41;99901.75;;;20.62;50.94
69737;BME280;64476;55.004;73.342;2023-07-30T14:53:43;99907.22;;;20.55;51.16
69737;BME280;64476;55.004;73.342;2023-07-30T14:56:45;99894.91;;;20.37;50.72
69737;BME280;64476;55.004;73.342;2023-07-30T14:59:46;99902.66;;;20.39;51.18
69737;BME280;64476;55.004;73.342;2023-07-30T15:02:49;99898.88;;;20.34;51.45
69737;BME280;64476;55.004;73.342;2023-07-30T15:05:51;99898.22;;;20.27;51.51
69737;BME280;64476;55.004;73.342;2023-07-30T15:08:53;99871.50;;;20.10;51.62
69737;BME280;64476;55.004;73.342;2023-07-30T15:11:55;99894.75;;;20.27;51.83
69737;BME280;64476;55.004;73.342;2023-07-30T15:14:56;99894.63;;;20.22;51.88
69737;BME280;64476;55.004;73.342;2023-07-30T15:17:58;99869.56;;;20.06;51.82
69737;BME280;64476;55.004;73.342;2023-07-30T15:21:35;99868.41;;;20.02;51.69
69737;BME280;64476;55.004;73.342;2023-07-30T15:24:38;99867.50;;;19.96;51.73
69737;BME280;64476;55.004;73.342;2023-07-30T15:27:41;99871.94;;;19.91;51.72
69737;BME280;64476;55.004;73.342;2023-07-30T15:30:44;99886.03;;;20.03;52.35
69737;BME280;64476;55.004;73.342;2023-07-30T15:33:46;99849.16;;;19.71;52.96
69737;BME280;64476;55.004;73.342;2023-07-30T15:36:48;99855.22;;;19.67;53.40
69737;BME280;64476;55.004;73.342;2023-07-30T15:39:50;99863.44;;;19.65;53.95
69737;BME280;64476;55.004;73.342;2023-07-30T15:42:51;99890.66;;;19.79;54.33
69737;BME280;64476;55.004;73.342;2023-07-30T15:45:53;99888.34;;;19.71;54.55
69737;BME280;64476;55.004;73.342;2023-07-30T15:49:02;99874.22;;;19.58;54.64
69737;BME280;64476;55.004;73.342;2023-07-30T15:52:08;99867.88;;;19.48;54.71
69737;BME280;64476;55.004;73.342;2023-07-30T15:55:10;99858.41;;;19.40;54.96
69737;BME280;64476;55.004;73.342;2023-07-30T15:58:11;99858.53;;;19.33;55.17
69737;BME280;64476;55.004;73.342;2023-07-30T16:01:13;99868.81;;;19.42;55.45
69737;BME280;64476;55.004;73.342;2023-07-30T16:04:15;99876.25;;;19.39;55.79
69737;BME280;64476;55.004;73.342;2023-07-30T16:07:17;99875.09;;;19.35;55.84
69737;BME280;64476;55.004;73.342;2023-07-30T16:10:18;99882.63;;;19.38;56.25
69737;BME280;64476;55.004;73.342;2023-07-30T16:13:22;99877.88;;;19.29;56.46
69737;BME280;64476;55.004;73.342;2023-07-30T16:20:02;99881.63;;;19.16;56.71
69737;BME280;64476;55.004;73.342;2023-07-30T16:23:06;99878.47;;;19.07;56.79
69737;BME280;64476;55.004;73.342;2023-07-30T16:26:08;99858.44;;;18.93;57.13
69737;BME280;64476;55.004;73.342;2023-07-30T16:29:10;99856.59;;;18.94;57.00
69737;BME280;64476;55.004;73.342;2023-07-30T16:32:13;99880.22;;;19.02;56.93
69737;BME280;64476;55.004;73.342;2023-07-30T16:35:19;99857.38;;;18.82;57.02
69737;BME280;64476;55.004;73.342;2023-07-30T16:38:24;99855.88;;;18.75;57.15
69737;BME280;64476;55.004;73.342;2023-07-30T16:41:35;99819.78;;;18.43;57.60
69737;BME280;64476;55.004;73.342;2023-07-30T16:44:37;99904.50;;;18.94;58.09
69737;BME280;64476;55.004;73.342;2023-07-30T16:47:39;99878.47;;;18.72;58.60
69737;BME280;64476;55.004;73.342;2023-07-30T16:50:45;99876.25;;;18.69;58.89
69737;BME280;64476;55.004;73.342;2023-07-30T16:53:47;99911.19;;;18.84;59.10
69737;BME280;64476;55.004;73.342;2023-07-30T16:56:48;99917.44;;;18.78;58.87
69737;BME280;64476;55.004;73.342;2023-07-30T17:02:55;99911.84;;;18.68;59.31
69737;BME280;64476;55.004;73.342;2023-07-30T17:06:01;99888.13;;;18.55;59.82
69737;BME280;64476;55.004;73.342;2023-07-30T17:09:03;99875.38;;;18.45;59.72
69737;BME280;64476;55.004;73.342;2023-07-30T17:12:05;99895.41;;;18.48;59.73
69737;BME280;64476;55.004;73.342;2023-07-30T17:15:07;99909.41;;;18.43;60.09